Time;durP1;ratioP1;P1;durP2;ratioP2;P2;SDS_P1;SDS_P2;PMS_P1;PMS_P2;Temp;Humidity;BMP_temperature;BMP_pressure;BME280_temperature;BME280_humidity;BME280_pressure;Samples;Min_cycle;Max_cycle;Signal;HPM_P1;HPM_P2
2021/11/18 00:00:48;;;;;;;4.87;1.73;;;;;;;13.02;46.58;101111.34;5032836;28;20124;-62
2021/11/18 00:03:17;;;;;;;3.10;1.60;;;;;;;13.32;46.17;101148.03;5032567;28;20429;-63
2021/11/18 00:05:45;;;;;;;2.17;1.33;;;;;;;13.41;45.90;101140.72;5032800;28;20159;-62
2021/11/18 00:08:11;;;;;;;2.13;1.00;;;;;;;13.31;45.97;101130.34;5031844;28;20076;-62
2021/11/18 00:10:45;;;;;;;2.80;1.70;;;;;;;13.23;46.04;101114.06;5029734;28;20080;-62
2021/11/18 00:13:15;;;;;;;4.70;1.70;;;;;;;13.33;46.20;101127.25;5032486;28;20085;-62
2021/11/18 00:15:43;;;;;;;1.85;0.98;;;;;;;13.25;46.16;101125.88;5029131;28;20498;-62
2021/11/18 00:18:18;;;;;;;4.67;1.23;;;;;;;13.21;46.16;101133.16;5031386;28;20076;-61
2021/11/18 00:20:49;;;;;;;3.87;1.30;;;;;;;13.09;45.85;101111.00;5019089;28;20081;-62
2021/11/18 00:23:17;;;;;;;2.57;1.43;;;;;;;13.13;46.25;101133.72;4998821;28;20052;-61
2021/11/18 00:25:44;;;;;;;2.50;1.27;;;;;;;13.10;46.21;101131.50;5008978;28;20050;-63
2021/11/18 00:28:12;;;;;;;1.90;1.13;;;;;;;13.19;45.92;101132.59;5011743;28;20128;-60
2021/11/18 00:30:39;;;;;;;2.60;1.30;;;;;;;13.09;46.18;101132.59;5008097;28;20112;-61
2021/11/18 00:33:07;;;;;;;3.63;1.90;;;;;;;12.97;46.17;101125.34;4997444;28;20455;-65
2021/11/18 00:35:36;;;;;;;2.90;1.30;;;;;;;13.00;46.09;101132.34;5003582;28;20060;-63
2021/11/18 00:38:04;;;;;;;2.47;1.20;;;;;;;13.06;45.97;101117.22;4983854;28;20668;-61
2021/11/18 00:40:34;;;;;;;2.97;1.40;;;;;;;12.99;46.07;101120.31;5003902;28;20240;-63
2021/11/18 00:43:03;;;;;;;4.90;2.20;;;;;;;13.04;45.99;101117.47;5003251;28;20069;-65
2021/11/18 00:45:31;;;;;;;4.20;1.70;;;;;;;12.98;46.07;101107.38;5004143;28;20073;-65
2021/11/18 00:47:58;;;;;;;1.50;0.90;;;;;;;12.96;46.01;101118.06;5008313;28;20086;-60
2021/11/18 00:50:28;;;;;;;4.00;1.90;;;;;;;12.87;46.09;101108.53;5003270;28;20133;-59
2021/11/18 00:52:55;;;;;;;3.93;1.30;;;;;;;12.83;46.23;101117.81;4996971;28;20078;-61
2021/11/18 00:55:25;;;;;;;3.53;2.17;;;;;;;12.74;46.23;101103.50;5014856;28;20072;-60
2021/11/18 00:57:51;;;;;;;2.17;1.60;;;;;;;12.75;46.23;101110.78;5019441;28;20136;-59
2021/11/18 01:00:24;;;;;;;1.57;0.90;;;;;;;12.57;46.56;101106.59;5007705;28;20124;-59
2021/11/18 01:02:52;;;;;;;1.73;1.27;;;;;;;12.48;46.88;101103.53;5007230;28;20050;-60
2021/11/18 01:05:24;;;;;;;4.13;1.60;;;;;;;12.61;46.83;101104.91;4992885;28;20077;-58
2021/11/18 01:07:54;;;;;;;1.03;0.47;;;;;;;12.41;46.83;101086.16;5010019;28;20070;-57
2021/11/18 01:10:22;;;;;;;1.25;0.77;;;;;;;12.54;46.93;101098.75;5001293;28;20113;-58
2021/11/18 01:12:49;;;;;;;2.20;1.20;;;;;;;12.57;46.95;101106.59;5005049;28;20565;-58
2021/11/18 01:15:19;;;;;;;2.93;1.10;;;;;;;12.53;46.98;101103.50;5006015;28;20066;-58
2021/11/18 01:17:47;;;;;;;1.47;0.90;;;;;;;12.29;46.99;101057.59;5007419;28;20141;-58
2021/11/18 01:20:16;;;;;;;1.30;0.77;;;;;;;12.56;46.81;101096.53;5004418;28;20054;-57
2021/11/18 01:22:44;;;;;;;1.50;1.00;;;;;;;12.44;47.19;101093.97;5004907;28;20145;-60
2021/11/18 01:25:14;;;;;;;1.23;0.87;;;;;;;12.40;47.21;101089.22;5004057;28;20157;-57
2021/11/18 01:27:43;;;;;;;1.27;0.90;;;;;;;12.14;47.25;101047.22;5001195;28;20142;-58
2021/11/18 01:30:15;;;;;;;4.73;2.70;;;;;;;12.19;47.74;101068.78;5006590;28;20084;-58
2021/11/18 01:32:42;;;;;;;1.80;0.47;;;;;;;12.35;47.25;101087.28;5005358;28;20084;-58
2021/11/18 01:35:10;;;;;;;2.57;1.43;;;;;;;12.27;47.66;101066.28;5007545;28;20171;-59
2021/11/18 01:37:37;;;;;;;1.83;1.00;;;;;;;12.26;47.56;101070.19;5008281;28;20081;-58
2021/11/18 01:40:07;;;;;;;3.47;1.27;;;;;;;12.18;47.48;101050.31;4999127;28;20442;-61
2021/11/18 01:42:34;;;;;;;3.90;1.42;;;;;;;12.17;47.40;101040.22;5007447;28;20133;-61
2021/11/18 01:45:03;;;;;;;2.97;1.00;;;;;;;12.47;47.20;101082.22;5004661;28;20421;-60
2021/11/18 01:47:29;;;;;;;3.20;1.27;;;;;;;12.36;47.23;101080.53;5008495;28;20050;-62
2021/11/18 01:49:57;;;;;;;3.30;1.10;;;;;;;12.28;47.17;101045.53;5017421;28;20069;-61
2021/11/18 01:52:27;;;;;;;1.87;1.00;;;;;;;12.27;47.53;101060.69;5013954;28;20062;-61
2021/11/18 01:54:54;;;;;;;;;;;;;;;12.24;47.86;101071.56;5013712;28;20060;-61
2021/11/18 01:57:26;;;;;;;0.77;0.67;;;;;;;12.22;47.65;101055.06;5010734;28;20334;-61
2021/11/18 01:59:54;;;;;;;4.83;1.27;;;;;;;11.75;47.90;100996.47;5003786;28;20475;-61
2021/11/18 02:02:25;;;;;;;1.67;0.87;;;;;;;12.31;47.56;101055.34;5007370;28;20137;-62
2021/11/18 02:05:37;;;;;;;1.53;1.03;;;;;;;12.32;47.41;101060.66;5000838;28;20097;-61
2021/11/18 02:08:07;;;;;;;1.27;0.63;;;;;;;12.31;47.56;101060.97;4933893;29;20048;-63
2021/11/18 02:10:41;;;;;;;2.42;1.30;;;;;;;12.35;47.58;101067.69;4994126;28;20069;-62
2021/11/18 02:13:11;;;;;;;2.00;1.03;;;;;;;12.23;47.32;101039.09;4987477;28;20409;-63
2021/11/18 02:15:45;;;;;;;2.30;1.23;;;;;;;12.25;47.62;101056.47;5000949;28;20458;-61
2021/11/18 02:18:21;;;;;;;1.43;0.83;;;;;;;12.37;47.62;101070.19;5007965;28;20073;-62
2021/11/18 02:20:50;;;;;;;4.13;1.90;;;;;;;12.49;47.21;101076.34;5020537;28;20054;-61
2021/11/18 02:23:22;;;;;;;4.78;1.27;;;;;;;12.54;46.99;101065.97;5032085;28;20060;-60
2021/11/18 02:25:51;;;;;;;1.23;0.80;;;;;;;12.54;46.76;101065.13;5033213;28;20046;-60
2021/11/18 02:28:21;;;;;;;0.90;0.70;;;;;;;12.48;47.02;101069.91;5027543;28;20125;-60
2021/11/18 02:30:49;;;;;;;2.80;1.10;;;;;;;12.58;46.98;101071.88;5029534;28;20049;-59
2021/11/18 02:33:17;;;;;;;0.30;0.30;;;;;;;12.49;47.03;101074.38;5024904;28;20049;-60
2021/11/18 02:35:47;;;;;;;0.30;0.30;;;;;;;12.51;47.07;101069.34;5029350;28;20072;-61
2021/11/18 02:38:16;;;;;;;0.75;0.50;;;;;;;12.50;47.16;101064.03;5031584;28;20076;-59
2021/11/18 02:40:44;;;;;;;2.33;0.70;;;;;;;12.49;46.67;101046.38;5017533;28;20081;-60
2021/11/18 02:43:17;;;;;;;1.07;0.70;;;;;;;12.37;46.85;101029.00;5024926;28;20577;-59
2021/11/18 02:45:47;;;;;;;1.33;0.93;;;;;;;12.62;46.48;101046.94;5019923;28;20049;-60
2021/11/18 02:48:16;;;;;;;0.82;0.30;;;;;;;12.63;46.60;101060.66;5020968;28;20143;-59
2021/11/18 02:50:46;;;;;;;4.50;0.60;;;;;;;12.56;46.56;101057.28;5027237;28;20038;-61
2021/11/18 02:53:14;;;;;;;1.50;1.00;;;;;;;12.60;46.78;101060.38;5028470;28;20141;-59
2021/11/18 02:55:44;;;;;;;1.10;0.60;;;;;;;12.61;46.74;101053.63;5029914;28;20124;-61
2021/11/18 02:58:12;;;;;;;0.47;0.47;;;;;;;12.53;46.67;101047.47;5033337;28;20620;-61
2021/11/18 03:00:42;;;;;;;1.37;0.53;;;;;;;12.60;46.37;101046.38;5028249;28;20092;-61
2021/11/18 03:03:09;;;;;;;1.52;1.05;;;;;;;12.43;46.93;101050.28;5033984;28;20053;-61
2021/11/18 03:05:37;;;;;;;0.57;0.40;;;;;;;12.49;46.68;101035.16;5028599;28;20107;-62
2021/11/18 03:08:04;;;;;;;0.27;0.27;;;;;;;12.62;46.03;101056.19;5027832;28;20045;-63
2021/11/18 03:10:31;;;;;;;0.57;0.40;;;;;;;12.67;46.29;101052.50;5025211;28;20044;-62
2021/11/18 03:12:59;;;;;;;1.20;0.60;;;;;;;12.61;46.24;101025.63;5031800;28;20072;-61
2021/11/18 03:15:27;;;;;;;1.40;0.70;;;;;;;12.76;45.89;101037.66;5021961;28;20069;-61
2021/11/18 03:17:53;;;;;;;1.53;0.77;;;;;;;12.75;46.14;101037.91;5030500;28;20045;-62
2021/11/18 03:20:23;;;;;;;1.00;0.67;;;;;;;12.81;45.74;101036.78;5026106;28;20544;-62
2021/11/18 03:22:50;;;;;;;3.53;0.95;;;;;;;12.76;45.98;101034.00;5020200;28;20057;-62
2021/11/18 03:25:21;;;;;;;3.07;0.67;;;;;;;12.65;46.02;101026.72;5014397;28;20046;-62
2021/11/18 03:27:49;;;;;;;1.43;0.90;;;;;;;12.69;46.08;101025.06;5028560;28;20050;-61
2021/11/18 03:30:24;;;;;;;0.83;0.50;;;;;;;12.72;45.89;101032.91;5028349;28;20111;-61
2021/11/18 03:32:53;;;;;;;1.07;0.60;;;;;;;12.55;46.10;101022.84;5021503;28;20475;-63
2021/11/18 03:35:21;;;;;;;1.03;0.50;;;;;;;12.74;46.02;101044.66;5023911;28;20502;-60
2021/11/18 03:37:49;;;;;;;1.03;0.77;;;;;;;12.69;45.90;101030.66;5021254;28;20050;-60
2021/11/18 03:40:17;;;;;;;1.53;1.10;;;;;;;12.76;45.86;101034.84;5027620;28;20462;-62
2021/11/18 03:42:46;;;;;;;1.20;0.53;;;;;;;12.68;45.73;101027.00;5016929;28;20085;-61
2021/11/18 03:45:18;;;;;;;2.47;1.27;;;;;;;12.70;45.87;101037.94;5023894;28;20133;-62
2021/11/18 03:47:44;;;;;;;0.50;0.50;;;;;;;12.61;45.61;101025.63;5022305;28;20124;-60
2021/11/18 03:50:13;;;;;;;1.43;0.60;;;;;;;12.68;45.77;101048.59;5022233;28;20158;-59
2021/11/18 03:52:40;;;;;;;1.13;0.70;;;;;;;12.66;45.87;101034.88;5019031;28;20132;-61
2021/11/18 03:55:09;;;;;;;2.07;0.90;;;;;;;12.49;46.13;101023.13;5030825;28;20076;-61
2021/11/18 03:57:36;;;;;;;1.53;1.00;;;;;;;12.44;46.37;101032.34;5027481;28;20065;-62
2021/11/18 04:00:10;;;;;;;1.30;0.63;;;;;;;12.50;46.27;101022.00;5030082;28;20157;-62
2021/11/18 04:02:38;;;;;;;2.30;1.10;;;;;;;12.42;46.24;101016.97;5026043;28;20073;-63
2021/11/18 04:05:05;;;;;;;1.70;0.70;;;;;;;12.41;46.25;101010.53;5028081;28;20049;-62
2021/11/18 04:07:38;;;;;;;1.37;0.90;;;;;;;12.49;46.05;101017.53;5032163;28;20095;-62
2021/11/18 04:10:13;;;;;;;1.23;0.83;;;;;;;12.48;46.10;101010.25;5026757;28;20085;-62
2021/11/18 04:12:41;;;;;;;1.60;1.20;;;;;;;12.48;46.29;101016.69;5029405;28;20128;-62
2021/11/18 04:15:09;;;;;;;3.70;0.60;;;;;;;12.44;46.29;101007.16;5030178;28;20057;-62
2021/11/18 04:20:14;;;;;;;0.70;0.70;;;;;;;12.37;46.30;101009.41;5162681;22;20432;-61
2021/11/18 04:22:42;;;;;;;2.10;1.20;;;;;;;12.47;46.30;101014.16;4983991;28;20153;-61
2021/11/18 04:25:13;;;;;;;1.27;0.80;;;;;;;12.45;46.23;101006.06;4988359;28;20074;-61
2021/11/18 04:27:41;;;;;;;;;;;;;;;12.40;46.33;101008.84;4968322;28;20498;-59
2021/11/18 04:30:11;;;;;;;2.80;0.80;;;;;;;12.47;46.06;101019.75;4989570;28;20016;-59
2021/11/18 04:32:38;;;;;;;5.65;0.95;;;;;;;12.51;45.81;101016.13;4991591;28;20134;-59
2021/11/18 04:35:09;;;;;;;1.33;0.70;;;;;;;12.49;45.86;101018.38;4988342;28;20050;-59
2021/11/18 04:37:36;;;;;;;0.87;0.53;;;;;;;12.57;45.71;101019.75;4991232;28;20133;-59
2021/11/18 04:40:04;;;;;;;1.17;0.60;;;;;;;12.65;45.52;101015.53;4990792;28;20056;-60
2021/11/18 04:42:31;;;;;;;0.57;0.30;;;;;;;12.63;45.65;101017.78;4988973;28;20133;-61
2021/11/18 04:44:58;;;;;;;0.70;0.53;;;;;;;12.69;45.59;101016.66;4990618;28;20129;-60
2021/11/18 04:47:25;;;;;;;0.70;0.60;;;;;;;12.65;45.58;101009.91;4991022;28;20465;-61
2021/11/18 04:49:52;;;;;;;1.47;0.80;;;;;;;12.56;45.71;101013.31;4989328;28;20133;-60
2021/11/18 04:52:21;;;;;;;0.63;0.45;;;;;;;12.67;45.39;101007.69;4992102;28;20054;-60
2021/11/18 04:54:48;;;;;;;0.53;0.40;;;;;;;12.61;45.43;101008.81;4991397;28;20085;-60
2021/11/18 04:57:15;;;;;;;0.77;0.70;;;;;;;12.46;45.47;101002.13;4989317;28;20129;-60
2021/11/18 04:59:42;;;;;;;1.37;0.60;;;;;;;12.56;45.71;101013.31;4990587;28;20138;-60
2021/11/18 05:02:10;;;;;;;1.13;0.50;;;;;;;12.55;45.70;101005.19;4990442;28;20125;-60
2021/11/18 05:04:37;;;;;;;1.40;0.70;;;;;;;12.67;45.31;101007.69;4991520;28;20050;-62
2021/11/18 05:07:04;;;;;;;0.50;0.50;;;;;;;12.66;45.20;101009.66;4984081;28;20148;-58
2021/11/18 05:09:31;;;;;;;0.97;0.60;;;;;;;12.73;45.28;101017.75;4991391;28;20046;-59
2021/11/18 05:11:58;;;;;;;1.10;0.60;;;;;;;12.66;45.25;101003.22;4989088;28;20133;-59
2021/11/18 05:14:25;;;;;;;0.47;0.40;;;;;;;12.72;45.06;101011.31;4991450;28;20229;-59
2021/11/18 05:16:52;;;;;;;0.80;0.50;;;;;;;12.79;44.81;101011.88;4986118;28;20558;-59
2021/11/18 05:19:21;;;;;;;1.50;0.77;;;;;;;12.48;45.04;100957.88;4990426;28;20077;-60
2021/11/18 05:21:49;;;;;;;1.23;0.70;;;;;;;12.63;45.04;100998.16;4991090;28;20046;-59
2021/11/18 05:24:16;;;;;;;0.77;0.67;;;;;;;12.58;45.13;100987.81;4990162;28;20129;-59
2021/11/18 05:26:43;;;;;;;1.17;0.70;;;;;;;12.66;45.06;100995.63;4973473;28;20129;-62
2021/11/18 05:29:10;;;;;;;0.60;0.60;;;;;;;12.73;45.21;101007.38;4990918;28;20129;-62
2021/11/18 05:31:37;;;;;;;1.23;0.60;;;;;;;12.68;45.06;100986.94;4989364;28;20125;-61
2021/11/18 05:34:04;;;;;;;1.50;0.80;;;;;;;12.69;45.14;101006.28;4991317;28;20148;-63
2021/11/18 05:36:31;;;;;;;1.33;1.00;;;;;;;12.70;45.13;101012.72;4991627;28;20115;-63
2021/11/18 05:38:58;;;;;;;1.77;1.10;;;;;;;12.61;45.09;100994.81;4991209;28;20089;-60
2021/11/18 05:41:25;;;;;;;2.00;0.83;;;;;;;12.54;45.08;100986.69;4988905;28;20055;-60
2021/11/18 05:43:52;;;;;;;0.40;0.40;;;;;;;12.60;45.28;100995.94;4991276;28;20482;-61
2021/11/18 05:46:21;;;;;;;2.03;1.03;;;;;;;12.64;44.96;101000.69;4986444;28;20125;-59
2021/11/18 05:48:48;;;;;;;1.10;0.70;;;;;;;12.61;45.02;101006.00;4979385;28;20046;-56
2021/11/18 05:51:16;;;;;;;1.60;0.53;;;;;;;12.63;45.11;101006.56;4989427;28;20093;-54
2021/11/18 05:53:46;;;;;;;1.40;0.80;;;;;;;12.61;45.08;100998.44;4987275;28;20418;-57
2021/11/18 05:56:17;;;;;;;1.87;0.53;;;;;;;12.56;45.05;100996.50;4990680;28;20454;-57
2021/11/18 05:58:47;;;;;;;1.57;0.60;;;;;;;12.56;45.07;100998.47;4990392;28;20166;-58
2021/11/18 06:01:16;;;;;;;;;;;;;;;12.57;45.12;101000.13;4989865;28;20078;-60
2021/11/18 06:03:43;;;;;;;0.77;0.50;;;;;;;12.55;45.13;101011.63;4990485;28;20393;-62
2021/11/18 06:06:11;;;;;;;1.90;1.07;;;;;;;12.41;45.47;101009.66;4989559;28;20494;-62
2021/11/18 06:08:38;;;;;;;1.47;0.90;;;;;;;12.23;46.03;101008.28;4990529;28;20077;-63
2021/11/18 06:11:06;;;;;;;1.53;0.73;;;;;;;12.35;45.64;101011.66;4990083;28;20488;-61
2021/11/18 06:13:33;;;;;;;2.20;1.10;;;;;;;12.42;45.66;101017.81;4988482;28;20052;-60
2021/11/18 06:16:02;;;;;;;0.63;0.50;;;;;;;12.44;45.43;101015.56;4988909;28;20141;-65
2021/11/18 06:18:30;;;;;;;3.47;0.70;;;;;;;12.50;45.48;101020.03;4990595;28;20050;-65
2021/11/18 06:20:57;;;;;;;0.80;0.70;;;;;;;12.54;45.35;101021.13;4988820;28;20121;-69
2021/11/18 06:23:25;;;;;;;1.00;0.70;;;;;;;12.49;45.16;101007.16;4990296;28;20050;-65
2021/11/18 06:25:52;;;;;;;2.63;0.90;;;;;;;12.55;45.15;101022.00;4988438;28;20129;-60
2021/11/18 06:28:20;;;;;;;0.87;0.50;;;;;;;12.43;45.38;101018.66;4990507;28;20066;-60
2021/11/18 06:30:54;;;;;;;3.80;0.80;;;;;;;12.31;45.81;101018.94;4987047;28;20078;-59
2021/11/18 06:33:22;;;;;;;0.67;0.50;;;;;;;12.34;45.76;101029.56;4990998;28;20078;-59
2021/11/18 06:35:50;;;;;;;1.53;0.60;;;;;;;12.30;45.76;101034.06;4990611;28;20081;-59
2021/11/18 06:38:33;;;;;;;1.37;0.70;;;;;;;12.20;46.15;101025.66;4994325;28;20126;-58
2021/11/18 06:41:00;;;;;;;1.13;0.83;;;;;;;12.32;46.01;101040.22;4992204;28;20046;-58
2021/11/18 06:43:27;;;;;;;0.60;0.50;;;;;;;12.27;45.92;101015.88;4992898;28;20101;-56
2021/11/18 06:45:55;;;;;;;1.47;0.90;;;;;;;12.25;46.28;101023.69;4992496;28;20085;-56
2021/11/18 06:48:30;;;;;;;1.27;0.90;;;;;;;12.28;46.21;101033.50;4985749;28;20046;-57
2021/11/18 06:51:05;;;;;;;1.03;0.70;;;;;;;12.33;45.93;101030.69;4994276;28;20046;-62
2021/11/18 06:53:33;;;;;;;1.30;0.80;;;;;;;12.35;45.76;101014.47;4989273;28;20073;-58
2021/11/18 06:56:00;;;;;;;2.37;0.93;;;;;;;12.31;46.03;101017.00;4993459;28;20402;-58
2021/11/18 06:58:27;;;;;;;2.30;1.10;;;;;;;12.21;46.19;101021.75;4992682;28;20062;-59
2021/11/18 07:00:54;;;;;;;2.10;0.83;;;;;;;12.14;46.32;101015.59;4988924;28;20177;-59
2021/11/18 07:03:21;;;;;;;1.50;0.80;;;;;;;12.23;46.39;101031.53;4994004;28;20069;-59
2021/11/18 07:05:48;;;;;;;0.20;0.20;;;;;;;12.07;46.78;101033.50;4993757;28;20054;-60
2021/11/18 07:08:15;;;;;;;0.73;0.60;;;;;;;12.13;46.77;101036.28;4993457;28;20477;-59
2021/11/18 07:10:43;;;;;;;0.20;0.20;;;;;;;12.07;46.96;101039.09;4993283;28;20093;-59
2021/11/18 07:13:13;;;;;;;0.60;0.40;;;;;;;12.05;46.92;101040.50;4991472;28;20133;-59
2021/11/18 07:15:41;;;;;;;0.30;0.30;;;;;;;11.98;47.06;101046.38;4992101;28;20093;-59
2021/11/18 07:18:07;;;;;;;0.60;0.27;;;;;;;12.01;46.90;101047.78;4989960;28;20129;-59
2021/11/18 07:20:34;;;;;;;0.50;0.40;;;;;;;12.02;46.88;101055.88;4993716;28;20472;-59
2021/11/18 07:23:02;;;;;;;0.40;0.40;;;;;;;12.01;46.84;101047.78;4993218;28;20498;-59
2021/11/18 07:25:29;;;;;;;1.10;0.60;;;;;;;11.90;47.21;101038.53;4993614;28;20089;-59
2021/11/18 07:27:56;;;;;;;0.33;0.33;;;;;;;12.08;46.77;101040.78;4993133;28;20450;-59
2021/11/18 07:30:24;;;;;;;1.00;0.60;;;;;;;12.12;47.05;101048.63;4992304;28;20133;-59
2021/11/18 07:32:52;;;;;;;0.30;0.30;;;;;;;12.21;46.43;101052.56;4993207;28;20054;-59
2021/11/18 07:35:20;;;;;;;1.17;0.80;;;;;;;12.27;46.44;101054.22;4993232;28;20170;-59
2021/11/18 07:37:47;;;;;;;1.07;0.50;;;;;;;12.22;46.59;101074.66;4993656;28;20141;-60
2021/11/18 07:40:17;;;;;;;1.97;0.70;;;;;;;12.35;46.00;101078.03;4993186;28;20142;-57
2021/11/18 07:42:46;;;;;;;0.37;0.37;;;;;;;12.30;46.12;101087.25;4986231;28;20085;-57
2021/11/18 07:45:16;;;;;;;1.70;0.60;;;;;;;12.39;46.21;101096.78;4984957;28;20133;-58
2021/11/18 07:47:43;;;;;;;;;;;;;;;12.59;45.91;101103.53;4992074;28;20078;-58
2021/11/18 07:50:12;;;;;;;2.47;0.80;;;;;;;12.69;45.73;101109.13;4992225;28;20012;-58
2021/11/18 07:52:40;;;;;;;1.23;0.65;;;;;;;12.92;45.49;101114.16;4992508;28;20402;-56
2021/11/18 07:55:12;;;;;;;2.07;0.87;;;;;;;12.97;45.24;101080.50;4992297;28;20054;-59
2021/11/18 07:57:39;;;;;;;1.73;0.97;;;;;;;13.40;44.76;101111.81;4986428;28;20133;-54
2021/11/18 08:00:09;;;;;;;2.33;0.60;;;;;;;13.64;44.47;101117.63;4990882;28;20050;-56
2021/11/18 08:02:36;;;;;;;2.20;0.80;;;;;;;13.78;44.23;101120.63;4987374;28;20073;-58
2021/11/18 08:05:04;;;;;;;3.23;0.80;;;;;;;14.03;44.04;101121.63;4991350;28;20467;-58
2021/11/18 08:07:31;;;;;;;1.23;0.70;;;;;;;14.38;43.34;101120.53;4973420;28;20146;-59
2021/11/18 08:09:57;;;;;;;2.03;0.80;;;;;;;14.74;43.33;101123.94;4992351;28;20126;-58
2021/11/18 08:12:24;;;;;;;1.87;0.80;;;;;;;15.06;42.74;101133.75;4968522;28;20086;-58
2021/11/18 08:14:51;;;;;;;1.53;0.87;;;;;;;15.16;42.68;101105.53;4990688;28;20460;-58
2021/11/18 08:17:18;;;;;;;1.33;0.93;;;;;;;15.48;42.11;101126.53;4987204;28;20047;-58
2021/11/18 08:19:45;;;;;;;8.63;0.90;;;;;;;15.73;41.80;101134.72;4976866;28;20062;-59
2021/11/18 08:22:12;;;;;;;2.30;1.37;;;;;;;15.88;41.43;101134.50;4989731;28;20078;-58
2021/11/18 08:24:38;;;;;;;3.20;0.97;;;;;;;15.97;41.12;101128.22;4975954;28;20142;-58
2021/11/18 08:27:05;;;;;;;4.53;0.83;;;;;;;16.22;40.80;101135.44;4990352;28;20125;-58
2021/11/18 08:29:32;;;;;;;1.73;0.90;;;;;;;16.62;40.64;101133.97;4984424;28;20402;-59
2021/11/18 08:31:59;;;;;;;8.03;1.33;;;;;;;17.14;40.22;101139.59;4974205;28;20089;-58
2021/11/18 08:34:27;;;;;;;2.75;1.42;;;;;;;17.70;40.18;101150.63;5005270;28;20133;-58
2021/11/18 08:36:55;;;;;;;3.40;1.70;;;;;;;18.16;39.17;101137.53;4996492;28;20089;-59
2021/11/18 08:39:24;;;;;;;2.28;1.25;;;;;;;18.53;38.65;101158.13;4992240;28;20089;-59
2021/11/18 08:42:00;;;;;;;2.47;1.35;;;;;;;18.74;38.27;101158.53;4992466;28;20394;-58
2021/11/18 08:44:30;;;;;;;1.33;0.85;;;;;;;19.02;38.25;101164.88;4992260;28;20524;-58
2021/11/18 08:46:57;;;;;;;1.08;0.80;;;;;;;18.81;37.09;101161.75;4991384;28;20085;-58
2021/11/18 08:49:25;;;;;;;1.92;1.00;;;;;;;18.21;36.13;101146.72;4990610;28;20046;-58
2021/11/18 08:51:54;;;;;;;2.75;2.00;;;;;;;18.29;36.23;101144.28;4997396;28;20053;-59
2021/11/18 08:54:24;;;;;;;1.65;0.90;;;;;;;18.39;35.90;101170.34;4972998;28;20046;-57
2021/11/18 08:56:54;;;;;;;5.88;1.20;;;;;;;18.20;35.52;101166.81;4989670;28;20133;-58
2021/11/18 08:59:22;;;;;;;1.52;0.88;;;;;;;17.90;35.37;101162.69;4990609;28;20498;-58
2021/11/18 09:01:55;;;;;;;2.10;1.48;;;;;;;17.28;36.00;101168.69;4990649;28;20137;-58
2021/11/18 09:04:24;;;;;;;1.20;1.05;;;;;;;17.60;36.22;101162.13;4989578;28;20042;-58
2021/11/18 09:06:52;;;;;;;5.95;1.17;;;;;;;18.06;35.77;101161.19;4987486;28;20113;-59
2021/11/18 09:09:22;;;;;;;1.77;1.10;;;;;;;17.83;35.16;101148.13;4968361;28;20058;-59
2021/11/18 09:11:51;;;;;;;1.48;1.15;;;;;;;17.78;35.16;101146.28;4985445;28;20082;-59
2021/11/18 09:14:20;;;;;;;2.28;1.00;;;;;;;17.73;35.29;101163.28;4992163;28;20174;-59
2021/11/18 09:16:49;;;;;;;4.57;1.02;;;;;;;17.84;35.27;101163.94;4989277;28;20478;-58
2021/11/18 09:19:20;;;;;;;0.57;0.57;;;;;;;17.36;34.72;101141.72;4990076;28;20134;-58
2021/11/18 09:21:48;;;;;;;1.05;0.80;;;;;;;17.13;35.70;101164.16;4990175;28;20082;-58
2021/11/18 09:24:43;;;;;;;1.67;1.00;;;;;;;16.99;35.31;101147.19;4987240;28;20122;-58
2021/11/18 09:27:19;;;;;;;1.52;0.93;;;;;;;17.10;35.68;101176.06;4971707;28;20551;-59
2021/11/18 09:29:47;;;;;;;1.23;1.00;;;;;;;16.99;35.87;101178.25;4987914;28;20050;-58
2021/11/18 09:32:14;;;;;;;1.88;1.33;;;;;;;16.71;35.97;101187.69;4989267;28;20096;-58
2021/11/18 09:34:42;;;;;;;1.20;1.10;;;;;;;16.43;36.60;101159.34;4991219;28;20082;-58
2021/11/18 09:37:10;;;;;;;2.13;1.08;;;;;;;16.89;36.58;101167.13;4990074;28;20560;-59
2021/11/18 09:39:37;;;;;;;0.80;0.80;;;;;;;16.83;36.08;101181.63;4990429;28;20182;-58
2021/11/18 09:42:15;;;;;;;0.90;0.90;;;;;;;16.73;36.16;101180.59;4989920;28;20078;-59
2021/11/18 09:45:05;;;;;;;0.75;0.75;;;;;;;16.77;35.90;101156.31;4990688;28;20133;-58
2021/11/18 09:48:09;;;;;;;1.75;1.50;;;;;;;16.49;36.25;101171.41;4989979;28;20073;-58
2021/11/18 09:50:57;;;;;;;1.20;1.10;;;;;;;16.87;36.23;101168.56;4987653;28;20097;-58
2021/11/18 09:53:42;;;;;;;0.80;0.80;;;;;;;17.09;35.79;101173.53;4990208;28;20105;-58
2021/11/18 09:56:22;;;;;;;1.25;1.15;;;;;;;16.89;35.77;101169.94;4991878;28;20112;-58
2021/11/18 09:58:53;;;;;;;1.80;1.33;;;;;;;16.87;35.92;101180.69;4985435;28;20541;-58
2021/11/18 10:01:26;;;;;;;1.30;1.25;;;;;;;16.99;35.77;101185.84;4980376;28;20168;-58
2021/11/18 10:04:13;;;;;;;1.55;1.20;;;;;;;17.30;35.75;101174.88;4981818;28;20078;-58
2021/11/18 10:06:41;;;;;;;2.03;1.40;;;;;;;17.58;35.18;101195.50;4986211;28;20140;-58
2021/11/18 10:09:44;;;;;;;1.77;1.20;;;;;;;17.69;34.97;101191.31;4986769;28;20137;-58
2021/11/18 10:12:31;;;;;;;2.35;1.52;;;;;;;18.04;34.56;101180.44;4935345;28;20050;-58
2021/11/18 10:15:05;;;;;;;3.58;1.77;;;;;;;18.58;34.50;101192.81;4989456;28;20129;-58
2021/11/18 10:17:39;;;;;;;1.20;1.10;;;;;;;18.92;34.25;101180.13;4992155;28;20133;-58
2021/11/18 10:20:12;;;;;;;3.63;1.40;;;;;;;19.09;32.85;101205.72;4989966;28;20124;-58
2021/11/18 10:22:46;;;;;;;1.63;1.13;;;;;;;18.33;32.98;101176.44;4992997;28;20089;-58
2021/11/18 10:25:27;;;;;;;3.47;1.50;;;;;;;18.43;33.42;101181.88;4994210;28;20053;-59
2021/11/18 10:28:19;;;;;;;4.28;1.70;;;;;;;18.44;33.52;101201.31;4991940;28;20080;-59
2021/11/18 10:30:54;;;;;;;2.20;1.60;;;;;;;18.97;33.11;101179.97;4989777;28;20050;-58
2021/11/18 10:33:40;;;;;;;3.65;1.40;;;;;;;18.93;32.80;101176.97;4992743;28;20054;-59
2021/11/18 10:36:33;;;;;;;5.18;1.38;;;;;;;18.38;32.79;101177.13;4985665;28;20050;-59
2021/11/18 10:39:13;;;;;;;1.70;1.55;;;;;;;18.36;33.38;101176.63;4991954;28;20061;-59
2021/11/18 10:41:40;;;;;;;5.95;1.83;;;;;;;19.49;32.91;101157.66;4992115;28;20696;-59
2021/11/18 10:44:30;;;;;;;1.23;1.17;;;;;;;19.98;31.55;101169.88;4993335;28;20149;-59
2021/11/18 10:47:19;;;;;;;3.75;2.22;;;;;;;19.46;31.62;101175.31;4990067;28;20046;-59
2021/11/18 10:49:49;;;;;;;3.20;2.05;;;;;;;20.19;31.62;101186.25;4991612;28;20093;-59
2021/11/18 10:52:34;;;;;;;1.77;1.67;;;;;;;20.04;30.88;101150.72;4972906;28;20047;-59
2021/11/18 10:55:07;;;;;;;3.58;1.92;;;;;;;20.23;30.97;101164.56;4972482;28;20061;-58
2021/11/18 10:57:34;;;;;;;2.47;1.70;;;;;;;20.48;30.43;101183.66;4987402;28;20066;-59
2021/11/18 11:00:17;;;;;;;1.67;1.52;;;;;;;20.58;30.73;101154.13;4991615;28;20128;-58
2021/11/18 11:02:44;;;;;;;2.38;2.03;;;;;;;20.64;30.02;101157.63;4986565;28;20074;-60
2021/11/18 11:05:39;;;;;;;4.45;1.63;;;;;;;20.46;29.76;101151.91;4993257;28;20061;-59
2021/11/18 11:08:28;;;;;;;3.40;2.08;;;;;;;20.21;30.35;101147.06;4981640;28;20375;-59
2021/11/18 11:11:23;;;;;;;3.10;2.15;;;;;;;20.68;30.32;101138.75;4992124;28;20050;-58
2021/11/18 11:14:28;;;;;;;2.25;1.83;;;;;;;21.51;29.01;101127.91;4989984;28;20050;-57
2021/11/18 11:17:16;;;;;;;6.63;2.97;;;;;;;21.58;28.56;101118.03;4987276;28;20109;-57
2021/11/18 11:20:12;;;;;;;2.88;2.67;;;;;;;21.39;29.13;101109.91;4987991;28;20057;-56
2021/11/18 11:23:12;;;;;;;5.07;2.08;;;;;;;21.19;28.70;101117.13;4990898;28;20121;-58
2021/11/18 11:25:42;;;;;;;2.72;2.17;;;;;;;21.11;28.61;101109.47;4991513;28;20141;-57
2021/11/18 11:28:32;;;;;;;3.00;2.47;;;;;;;21.58;28.75;101109.50;4992398;28;20490;-58
2021/11/18 11:31:14;;;;;;;2.17;1.70;;;;;;;22.31;28.28;101112.91;4990966;28;20506;-58
2021/11/18 11:33:53;;;;;;;2.10;1.98;;;;;;;22.52;27.50;101106.38;4993497;28;20050;-58
2021/11/18 11:36:28;;;;;;;4.73;2.33;;;;;;;22.53;28.09;101085.25;4989978;28;20133;-58
2021/11/18 11:39:16;;;;;;;3.10;2.25;;;;;;;22.65;27.54;101094.69;4987779;28;20133;-58
2021/11/18 11:42:25;;;;;;;2.20;2.10;;;;;;;21.89;27.08;101073.03;4972918;28;20051;-58
2021/11/18 11:45:13;;;;;;;2.20;2.10;;;;;;;21.63;27.83;101063.81;4987674;28;20097;-58
2021/11/18 11:48:05;;;;;;;3.83;2.40;;;;;;;21.85;27.96;101072.06;4979997;28;20087;-58